sensor_id;sensor_type;location;lat;lon;timestamp;temperature;humidity
17621;DHT22;8929;51.008;6.804;2022-12-18T00:01:29;-3.00;99.90
17621;DHT22;8929;51.008;6.804;2022-12-18T00:03:56;-3.00;99.90
17621;DHT22;8929;51.008;6.804;2022-12-18T00:06:22;-2.90;99.90
17621;DHT22;8929;51.008;6.804;2022-12-18T00:08:48;-3.00;99.90
17621;DHT22;8929;51.008;6.804;2022-12-18T00:11:15;-3.00;99.90
17621;DHT22;8929;51.008;6.804;2022-12-18T00:13:41;-3.00;99.90
17621;DHT22;8929;51.008;6.804;2022-12-18T00:16:08;-3.00;99.90
17621;DHT22;8929;51.008;6.804;2022-12-18T00:18:34;-3.10;99.90
17621;DHT22;8929;51.008;6.804;2022-12-18T00:21:00;-3.10;99.90
17621;DHT22;8929;51.008;6.804;2022-12-18T00:23:26;-3.10;99.90
17621;DHT22;8929;51.008;6.804;2022-12-18T00:25:52;-3.10;99.90
17621;DHT22;8929;51.008;6.804;2022-12-18T00:28:17;-3.20;99.90
17621;DHT22;8929;51.008;6.804;2022-12-18T00:30:43;-3.20;99.90
17621;DHT22;8929;51.008;6.804;2022-12-18T00:33:08;-3.20;99.90
17621;DHT22;8929;51.008;6.804;2022-12-18T00:35:33;-3.20;99.90
17621;DHT22;8929;51.008;6.804;2022-12-18T00:37:59;-3.20;99.90
17621;DHT22;8929;51.008;6.804;2022-12-18T00:40:25;-3.20;99.90
17621;DHT22;8929;51.008;6.804;2022-12-18T00:42:50;-3.20;99.90
17621;DHT22;8929;51.008;6.804;2022-12-18T00:45:28;-3.20;99.90
17621;DHT22;8929;51.008;6.804;2022-12-18T00:47:54;-3.10;99.90
17621;DHT22;8929;51.008;6.804;2022-12-18T00:50:20;-3.10;99.90
17621;DHT22;8929;51.008;6.804;2022-12-18T00:52:45;-3.20;99.90
17621;DHT22;8929;51.008;6.804;2022-12-18T00:55:11;-3.20;99.90
17621;DHT22;8929;51.008;6.804;2022-12-18T00:57:36;-3.20;99.90
17621;DHT22;8929;51.008;6.804;2022-12-18T01:00:03;-3.20;99.90
17621;DHT22;8929;51.008;6.804;2022-12-18T01:02:28;-3.20;99.90
17621;DHT22;8929;51.008;6.804;2022-12-18T01:04:54;-3.20;99.90
17621;DHT22;8929;51.008;6.804;2022-12-18T01:07:19;-3.20;99.90
17621;DHT22;8929;51.008;6.804;2022-12-18T01:09:45;-3.20;99.90
17621;DHT22;8929;51.008;6.804;2022-12-18T01:12:10;-3.30;99.90
17621;DHT22;8929;51.008;6.804;2022-12-18T01:14:36;-3.30;99.90
17621;DHT22;8929;51.008;6.804;2022-12-18T01:17:03;-3.30;99.90
17621;DHT22;8929;51.008;6.804;2022-12-18T01:19:29;-3.30;99.90
17621;DHT22;8929;51.008;6.804;2022-12-18T01:21:54;-3.40;99.90
17621;DHT22;8929;51.008;6.804;2022-12-18T01:24:20;-3.30;99.90
17621;DHT22;8929;51.008;6.804;2022-12-18T01:26:45;-3.40;99.90
17621;DHT22;8929;51.008;6.804;2022-12-18T01:29:11;-3.40;99.90
17621;DHT22;8929;51.008;6.804;2022-12-18T01:31:36;-3.40;99.90
17621;DHT22;8929;51.008;6.804;2022-12-18T01:34:02;-3.40;99.90
17621;DHT22;8929;51.008;6.804;2022-12-18T01:36:28;-3.40;99.90
17621;DHT22;8929;51.008;6.804;2022-12-18T01:38:54;-3.40;99.90
17621;DHT22;8929;51.008;6.804;2022-12-18T01:41:21;-3.40;99.90
17621;DHT22;8929;51.008;6.804;2022-12-18T01:46:12;-3.40;99.90
17621;DHT22;8929;51.008;6.804;2022-12-18T01:48:38;-3.50;99.90
17621;DHT22;8929;51.008;6.804;2022-12-18T01:51:04;-3.50;99.90
17621;DHT22;8929;51.008;6.804;2022-12-18T01:53:29;-3.50;99.90
17621;DHT22;8929;51.008;6.804;2022-12-18T01:55:56;-3.50;99.90
17621;DHT22;8929;51.008;6.804;2022-12-18T01:58:28;-3.40;99.90
17621;DHT22;8929;51.008;6.804;2022-12-18T02:00:55;-3.40;99.90
17621;DHT22;8929;51.008;6.804;2022-12-18T02:03:21;-3.40;99.90
17621;DHT22;8929;51.008;6.804;2022-12-18T02:05:47;-3.40;99.90
17621;DHT22;8929;51.008;6.804;2022-12-18T02:18:32;-3.40;99.90
17621;DHT22;8929;51.008;6.804;2022-12-18T02:21:10;-3.40;99.90
17621;DHT22;8929;51.008;6.804;2022-12-18T02:28:45;-3.40;99.90
17621;DHT22;8929;51.008;6.804;2022-12-18T02:31:14;-3.40;99.90
17621;DHT22;8929;51.008;6.804;2022-12-18T02:33:41;-3.40;99.90
17621;DHT22;8929;51.008;6.804;2022-12-18T02:36:08;-3.40;99.90
17621;DHT22;8929;51.008;6.804;2022-12-18T02:38:34;-3.50;99.90
17621;DHT22;8929;51.008;6.804;2022-12-18T02:41:00;-3.50;99.90
17621;DHT22;8929;51.008;6.804;2022-12-18T02:43:25;-3.40;99.90
17621;DHT22;8929;51.008;6.804;2022-12-18T02:45:56;-3.40;99.90
17621;DHT22;8929;51.008;6.804;2022-12-18T02:48:30;-3.40;99.90
17621;DHT22;8929;51.008;6.804;2022-12-18T02:51:01;-3.40;99.90
17621;DHT22;8929;51.008;6.804;2022-12-18T02:56:05;-3.50;99.90
17621;DHT22;8929;51.008;6.804;2022-12-18T03:01:13;-3.50;99.90
17621;DHT22;8929;51.008;6.804;2022-12-18T03:03:41;-3.50;99.90
17621;DHT22;8929;51.008;6.804;2022-12-18T03:06:09;-3.50;99.90
17621;DHT22;8929;51.008;6.804;2022-12-18T03:08:37;-3.50;99.90
17621;DHT22;8929;51.008;6.804;2022-12-18T03:11:11;-3.50;99.90
17621;DHT22;8929;51.008;6.804;2022-12-18T03:13:38;-3.40;99.90
17621;DHT22;8929;51.008;6.804;2022-12-18T03:16:06;-3.40;99.90
17621;DHT22;8929;51.008;6.804;2022-12-18T03:18:35;-3.40;99.90
17621;DHT22;8929;51.008;6.804;2022-12-18T03:21:04;-3.40;99.90
17621;DHT22;8929;51.008;6.804;2022-12-18T03:23:32;-3.40;99.90
17621;DHT22;8929;51.008;6.804;2022-12-18T03:25:59;-3.40;99.90
17621;DHT22;8929;51.008;6.804;2022-12-18T03:28:27;-3.40;99.90
17621;DHT22;8929;51.008;6.804;2022-12-18T03:30:56;-3.40;99.90
17621;DHT22;8929;51.008;6.804;2022-12-18T03:33:27;-3.40;99.90
17621;DHT22;8929;51.008;6.804;2022-12-18T03:35:54;-3.40;99.90
17621;DHT22;8929;51.008;6.804;2022-12-18T03:38:20;-3.40;99.90
17621;DHT22;8929;51.008;6.804;2022-12-18T03:43:43;-3.50;99.90
17621;DHT22;8929;51.008;6.804;2022-12-18T03:46:28;-3.40;99.90
17621;DHT22;8929;51.008;6.804;2022-12-18T03:49:03;-3.50;99.90
17621;DHT22;8929;51.008;6.804;2022-12-18T03:51:37;-3.50;99.90
17621;DHT22;8929;51.008;6.804;2022-12-18T03:54:04;-3.50;99.90
17621;DHT22;8929;51.008;6.804;2022-12-18T03:56:33;-3.50;99.90
17621;DHT22;8929;51.008;6.804;2022-12-18T03:59:00;-3.50;99.90
17621;DHT22;8929;51.008;6.804;2022-12-18T04:01:38;-3.60;99.90
17621;DHT22;8929;51.008;6.804;2022-12-18T04:04:04;-3.60;99.90
17621;DHT22;8929;51.008;6.804;2022-12-18T04:06:30;-3.60;99.90
17621;DHT22;8929;51.008;6.804;2022-12-18T04:09:00;-3.50;99.90
17621;DHT22;8929;51.008;6.804;2022-12-18T04:11:26;-3.50;99.90
17621;DHT22;8929;51.008;6.804;2022-12-18T04:13:52;-3.60;99.90
17621;DHT22;8929;51.008;6.804;2022-12-18T04:16:20;-3.60;99.90
17621;DHT22;8929;51.008;6.804;2022-12-18T04:18:45;-3.60;99.90
17621;DHT22;8929;51.008;6.804;2022-12-18T04:21:11;-3.60;99.90
17621;DHT22;8929;51.008;6.804;2022-12-18T04:23:36;-3.60;99.90
17621;DHT22;8929;51.008;6.804;2022-12-18T04:26:02;-3.60;99.90
17621;DHT22;8929;51.008;6.804;2022-12-18T04:28:27;-3.60;99.90
17621;DHT22;8929;51.008;6.804;2022-12-18T04:30:53;-3.60;99.90
17621;DHT22;8929;51.008;6.804;2022-12-18T04:33:18;-3.60;99.90
17621;DHT22;8929;51.008;6.804;2022-12-18T04:35:44;-3.60;99.90
17621;DHT22;8929;51.008;6.804;2022-12-18T04:38:09;-3.60;99.90
17621;DHT22;8929;51.008;6.804;2022-12-18T04:40:35;-3.60;99.90
17621;DHT22;8929;51.008;6.804;2022-12-18T04:43:01;-3.60;99.90
17621;DHT22;8929;51.008;6.804;2022-12-18T04:45:26;-3.60;99.90
17621;DHT22;8929;51.008;6.804;2022-12-18T04:47:52;-3.60;99.90
17621;DHT22;8929;51.008;6.804;2022-12-18T04:50:17;-3.60;99.90
17621;DHT22;8929;51.008;6.804;2022-12-18T04:52:43;-3.60;99.90
17621;DHT22;8929;51.008;6.804;2022-12-18T04:55:08;-3.70;99.90
17621;DHT22;8929;51.008;6.804;2022-12-18T04:57:34;-3.60;99.90
17621;DHT22;8929;51.008;6.804;2022-12-18T04:59:59;-3.60;99.90
17621;DHT22;8929;51.008;6.804;2022-12-18T05:02:25;-3.70;99.90
17621;DHT22;8929;51.008;6.804;2022-12-18T05:04:50;-3.60;99.90
17621;DHT22;8929;51.008;6.804;2022-12-18T05:07:16;-3.70;99.90
17621;DHT22;8929;51.008;6.804;2022-12-18T05:09:41;-3.70;99.90
17621;DHT22;8929;51.008;6.804;2022-12-18T05:12:07;-3.70;99.90
17621;DHT22;8929;51.008;6.804;2022-12-18T05:14:32;-3.70;99.90
17621;DHT22;8929;51.008;6.804;2022-12-18T05:16:58;-3.70;99.90
17621;DHT22;8929;51.008;6.804;2022-12-18T05:19:23;-3.70;99.90
17621;DHT22;8929;51.008;6.804;2022-12-18T05:21:48;-3.60;99.90
17621;DHT22;8929;51.008;6.804;2022-12-18T05:24:14;-3.70;99.90
17621;DHT22;8929;51.008;6.804;2022-12-18T05:26:39;-3.70;99.90
17621;DHT22;8929;51.008;6.804;2022-12-18T05:29:05;-3.60;99.90
17621;DHT22;8929;51.008;6.804;2022-12-18T05:31:30;-3.60;99.90
17621;DHT22;8929;51.008;6.804;2022-12-18T05:33:56;-3.60;99.90
17621;DHT22;8929;51.008;6.804;2022-12-18T05:36:21;-3.60;99.90
17621;DHT22;8929;51.008;6.804;2022-12-18T05:38:47;-3.60;99.90
17621;DHT22;8929;51.008;6.804;2022-12-18T05:41:12;-3.60;99.90
17621;DHT22;8929;51.008;6.804;2022-12-18T05:43:38;-3.60;99.90
17621;DHT22;8929;51.008;6.804;2022-12-18T05:46:08;-3.60;99.90
17621;DHT22;8929;51.008;6.804;2022-12-18T05:48:34;-3.60;99.90
17621;DHT22;8929;51.008;6.804;2022-12-18T05:51:03;-3.60;99.90
17621;DHT22;8929;51.008;6.804;2022-12-18T05:53:29;-3.50;99.90
17621;DHT22;8929;51.008;6.804;2022-12-18T05:55:59;-3.60;99.90
17621;DHT22;8929;51.008;6.804;2022-12-18T05:58:24;-3.50;99.90
17621;DHT22;8929;51.008;6.804;2022-12-18T06:00:50;-3.50;99.90
17621;DHT22;8929;51.008;6.804;2022-12-18T06:03:15;-3.60;99.90
17621;DHT22;8929;51.008;6.804;2022-12-18T06:05:42;-3.50;99.90
17621;DHT22;8929;51.008;6.804;2022-12-18T06:08:07;-3.50;99.90
17621;DHT22;8929;51.008;6.804;2022-12-18T06:10:33;-3.60;99.90
17621;DHT22;8929;51.008;6.804;2022-12-18T06:12:59;-3.60;99.90
17621;DHT22;8929;51.008;6.804;2022-12-18T06:15:24;-3.60;99.90
17621;DHT22;8929;51.008;6.804;2022-12-18T06:17:50;-3.60;99.90
17621;DHT22;8929;51.008;6.804;2022-12-18T06:20:15;-3.60;99.90
17621;DHT22;8929;51.008;6.804;2022-12-18T06:22:41;-3.60;99.90
17621;DHT22;8929;51.008;6.804;2022-12-18T06:25:06;-3.60;99.90
17621;DHT22;8929;51.008;6.804;2022-12-18T06:27:32;-3.60;99.90
17621;DHT22;8929;51.008;6.804;2022-12-18T06:29:59;-3.60;99.90
17621;DHT22;8929;51.008;6.804;2022-12-18T06:32:24;-3.60;99.90
17621;DHT22;8929;51.008;6.804;2022-12-18T06:34:49;-3.60;99.90
17621;DHT22;8929;51.008;6.804;2022-12-18T06:37:15;-3.60;99.90
17621;DHT22;8929;51.008;6.804;2022-12-18T06:39:40;-3.60;99.90
17621;DHT22;8929;51.008;6.804;2022-12-18T06:42:06;-3.60;99.90
17621;DHT22;8929;51.008;6.804;2022-12-18T06:44:31;-3.60;99.90
17621;DHT22;8929;51.008;6.804;2022-12-18T06:46:57;-3.50;99.90
17621;DHT22;8929;51.008;6.804;2022-12-18T06:49:22;-3.60;99.90
17621;DHT22;8929;51.008;6.804;2022-12-18T06:51:48;-3.60;99.90
17621;DHT22;8929;51.008;6.804;2022-12-18T06:54:13;-3.60;99.90
17621;DHT22;8929;51.008;6.804;2022-12-18T06:56:39;-3.60;99.90
17621;DHT22;8929;51.008;6.804;2022-12-18T06:59:04;-3.60;99.90
17621;DHT22;8929;51.008;6.804;2022-12-18T07:01:29;-3.60;99.90
17621;DHT22;8929;51.008;6.804;2022-12-18T07:03:55;-3.50;99.90
17621;DHT22;8929;51.008;6.804;2022-12-18T07:06:22;-3.50;99.90
17621;DHT22;8929;51.008;6.804;2022-12-18T07:08:48;-3.50;99.90
17621;DHT22;8929;51.008;6.804;2022-12-18T07:11:13;-3.50;99.90
17621;DHT22;8929;51.008;6.804;2022-12-18T07:13:39;-3.50;99.90
17621;DHT22;8929;51.008;6.804;2022-12-18T07:16:05;-3.50;99.90
17621;DHT22;8929;51.008;6.804;2022-12-18T07:18:31;-3.50;99.90
17621;DHT22;8929;51.008;6.804;2022-12-18T07:21:02;-3.50;99.90
17621;DHT22;8929;51.008;6.804;2022-12-18T07:23:27;-3.50;99.90
17621;DHT22;8929;51.008;6.804;2022-12-18T07:25:53;-3.50;99.90
17621;DHT22;8929;51.008;6.804;2022-12-18T07:28:18;-3.50;99.90
17621;DHT22;8929;51.008;6.804;2022-12-18T07:30:44;-3.50;99.90
17621;DHT22;8929;51.008;6.804;2022-12-18T07:33:09;-3.50;99.90
17621;DHT22;8929;51.008;6.804;2022-12-18T07:35:34;-3.50;99.90
17621;DHT22;8929;51.008;6.804;2022-12-18T07:38:00;-3.50;99.90
17621;DHT22;8929;51.008;6.804;2022-12-18T07:40:26;-3.50;99.90
17621;DHT22;8929;51.008;6.804;2022-12-18T07:42:51;-3.40;99.90
17621;DHT22;8929;51.008;6.804;2022-12-18T07:45:17;-3.40;99.90
17621;DHT22;8929;51.008;6.804;2022-12-18T07:47:42;-3.30;99.90
17621;DHT22;8929;51.008;6.804;2022-12-18T07:50:07;-3.30;99.90
17621;DHT22;8929;51.008;6.804;2022-12-18T07:52:33;-3.20;99.90
17621;DHT22;8929;51.008;6.804;2022-12-18T07:54:58;-3.20;99.90
17621;DHT22;8929;51.008;6.804;2022-12-18T07:57:24;-3.20;99.90
17621;DHT22;8929;51.008;6.804;2022-12-18T07:59:49;-3.20;99.90
17621;DHT22;8929;51.008;6.804;2022-12-18T08:02:15;-3.20;99.90
17621;DHT22;8929;51.008;6.804;2022-12-18T08:04:40;-3.10;99.90
17621;DHT22;8929;51.008;6.804;2022-12-18T08:07:06;-3.10;99.90
17621;DHT22;8929;51.008;6.804;2022-12-18T08:09:31;-3.00;99.90
17621;DHT22;8929;51.008;6.804;2022-12-18T08:11:57;-3.00;99.90
17621;DHT22;8929;51.008;6.804;2022-12-18T08:14:22;-3.00;99.90
17621;DHT22;8929;51.008;6.804;2022-12-18T08:16:48;-2.90;99.90
17621;DHT22;8929;51.008;6.804;2022-12-18T08:19:13;-2.90;99.90
17621;DHT22;8929;51.008;6.804;2022-12-18T08:21:38;-2.80;99.90
17621;DHT22;8929;51.008;6.804;2022-12-18T08:24:04;-2.80;99.90
17621;DHT22;8929;51.008;6.804;2022-12-18T08:26:30;-2.70;99.90
17621;DHT22;8929;51.008;6.804;2022-12-18T08:28:56;-2.70;99.90
17621;DHT22;8929;51.008;6.804;2022-12-18T08:31:22;-2.60;99.90
17621;DHT22;8929;51.008;6.804;2022-12-18T08:33:48;-2.60;99.90
17621;DHT22;8929;51.008;6.804;2022-12-18T08:36:14;-2.60;99.90
17621;DHT22;8929;51.008;6.804;2022-12-18T08:38:40;-2.60;99.90
17621;DHT22;8929;51.008;6.804;2022-12-18T08:41:06;-2.50;99.90
17621;DHT22;8929;51.008;6.804;2022-12-18T08:43:32;-2.50;99.90
17621;DHT22;8929;51.008;6.804;2022-12-18T08:46:16;-2.40;99.90
17621;DHT22;8929;51.008;6.804;2022-12-18T08:48:42;-2.40;99.90
17621;DHT22;8929;51.008;6.804;2022-12-18T08:51:09;-2.30;99.90
17621;DHT22;8929;51.008;6.804;2022-12-18T08:53:35;-2.20;99.90
17621;DHT22;8929;51.008;6.804;2022-12-18T08:56:00;-2.20;99.90
17621;DHT22;8929;51.008;6.804;2022-12-18T08:58:26;-2.10;99.90
17621;DHT22;8929;51.008;6.804;2022-12-18T09:00:51;-2.00;99.90
17621;DHT22;8929;51.008;6.804;2022-12-18T09:03:17;-1.90;99.90
17621;DHT22;8929;51.008;6.804;2022-12-18T09:05:43;-1.80;99.90
17621;DHT22;8929;51.008;6.804;2022-12-18T09:08:10;-1.70;99.90
17621;DHT22;8929;51.008;6.804;2022-12-18T09:10:41;-1.70;99.90
17621;DHT22;8929;51.008;6.804;2022-12-18T09:13:06;-1.70;99.90
17621;DHT22;8929;51.008;6.804;2022-12-18T09:15:32;-1.70;99.90
17621;DHT22;8929;51.008;6.804;2022-12-18T09:17:57;-1.70;99.90
17621;DHT22;8929;51.008;6.804;2022-12-18T09:20:23;-1.70;99.90
17621;DHT22;8929;51.008;6.804;2022-12-18T09:22:48;-1.60;99.90
17621;DHT22;8929;51.008;6.804;2022-12-18T09:25:13;-1.60;99.90
17621;DHT22;8929;51.008;6.804;2022-12-18T09:27:39;-1.60;99.90
17621;DHT22;8929;51.008;6.804;2022-12-18T09:30:05;-1.50;99.90
17621;DHT22;8929;51.008;6.804;2022-12-18T09:32:30;-1.30;99.90
17621;DHT22;8929;51.008;6.804;2022-12-18T09:34:56;-1.20;99.90
17621;DHT22;8929;51.008;6.804;2022-12-18T09:37:21;-1.10;99.90
17621;DHT22;8929;51.008;6.804;2022-12-18T09:39:47;-1.00;99.90
17621;DHT22;8929;51.008;6.804;2022-12-18T09:42:14;-1.00;99.90
17621;DHT22;8929;51.008;6.804;2022-12-18T09:44:43;-0.90;99.90
17621;DHT22;8929;51.008;6.804;2022-12-18T09:47:25;-0.90;99.90
17621;DHT22;8929;51.008;6.804;2022-12-18T09:49:58;-0.80;99.90
17621;DHT22;8929;51.008;6.804;2022-12-18T09:52:35;-0.70;99.90
17621;DHT22;8929;51.008;6.804;2022-12-18T09:55:10;-0.60;99.90
17621;DHT22;8929;51.008;6.804;2022-12-18T09:57:39;-0.50;99.90
17621;DHT22;8929;51.008;6.804;2022-12-18T10:00:15;-0.50;99.90
17621;DHT22;8929;51.008;6.804;2022-12-18T10:02:41;-0.50;99.90
17621;DHT22;8929;51.008;6.804;2022-12-18T10:05:11;-0.40;99.90
17621;DHT22;8929;51.008;6.804;2022-12-18T10:10:07;-0.30;99.90
17621;DHT22;8929;51.008;6.804;2022-12-18T10:12:42;-0.20;99.90
17621;DHT22;8929;51.008;6.804;2022-12-18T10:15:15;0.00;99.90
17621;DHT22;8929;51.008;6.804;2022-12-18T10:20:34;0.20;99.90
17621;DHT22;8929;51.008;6.804;2022-12-18T10:25:53;0.10;99.90
17621;DHT22;8929;51.008;6.804;2022-12-18T10:28:20;0.20;99.90
17621;DHT22;8929;51.008;6.804;2022-12-18T10:30:46;0.20;99.90
17621;DHT22;8929;51.008;6.804;2022-12-18T10:33:12;0.30;99.90
17621;DHT22;8929;51.008;6.804;2022-12-18T10:35:40;0.40;99.90
17621;DHT22;8929;51.008;6.804;2022-12-18T10:38:07;0.40;99.90
17621;DHT22;8929;51.008;6.804;2022-12-18T10:40:55;0.50;99.90
17621;DHT22;8929;51.008;6.804;2022-12-18T10:46:00;0.70;99.90
17621;DHT22;8929;51.008;6.804;2022-12-18T10:48:26;0.60;99.90
17621;DHT22;8929;51.008;6.804;2022-12-18T10:50:52;0.60;99.90
17621;DHT22;8929;51.008;6.804;2022-12-18T10:53:22;0.70;99.90
17621;DHT22;8929;51.008;6.804;2022-12-18T10:55:48;0.70;99.90
17621;DHT22;8929;51.008;6.804;2022-12-18T10:58:25;0.80;99.90
17621;DHT22;8929;51.008;6.804;2022-12-18T11:03:33;0.90;99.90
17621;DHT22;8929;51.008;6.804;2022-12-18T11:06:02;1.00;99.90
17621;DHT22;8929;51.008;6.804;2022-12-18T11:08:27;1.00;99.90
17621;DHT22;8929;51.008;6.804;2022-12-18T11:10:53;1.20;99.90
17621;DHT22;8929;51.008;6.804;2022-12-18T11:13:19;1.30;99.90
17621;DHT22;8929;51.008;6.804;2022-12-18T11:15:45;1.40;99.90
17621;DHT22;8929;51.008;6.804;2022-12-18T11:20:59;1.20;99.90
17621;DHT22;8929;51.008;6.804;2022-12-18T11:23:26;1.30;99.90
17621;DHT22;8929;51.008;6.804;2022-12-18T11:25:59;1.30;99.90
17621;DHT22;8929;51.008;6.804;2022-12-18T11:30:54;1.40;99.90
17621;DHT22;8929;51.008;6.804;2022-12-18T11:33:33;1.40;99.90
17621;DHT22;8929;51.008;6.804;2022-12-18T11:36:00;1.40;99.90
17621;DHT22;8929;51.008;6.804;2022-12-18T11:38:30;1.50;99.90
17621;DHT22;8929;51.008;6.804;2022-12-18T11:43:47;1.60;99.90
17621;DHT22;8929;51.008;6.804;2022-12-18T11:46:15;1.50;99.90
17621;DHT22;8929;51.008;6.804;2022-12-18T11:48:48;1.40;99.90
17621;DHT22;8929;51.008;6.804;2022-12-18T11:51:17;1.40;99.90
17621;DHT22;8929;51.008;6.804;2022-12-18T11:53:44;1.20;99.90
17621;DHT22;8929;51.008;6.804;2022-12-18T11:58:52;1.00;99.90
17621;DHT22;8929;51.008;6.804;2022-12-18T12:04:20;0.90;99.90
17621;DHT22;8929;51.008;6.804;2022-12-18T12:06:52;0.90;99.90
17621;DHT22;8929;51.008;6.804;2022-12-18T12:14:34;0.80;99.90
17621;DHT22;8929;51.008;6.804;2022-12-18T12:22:40;0.90;99.90
17621;DHT22;8929;51.008;6.804;2022-12-18T12:35:22;1.00;99.90
17621;DHT22;8929;51.008;6.804;2022-12-18T12:40:17;0.90;99.90
17621;DHT22;8929;51.008;6.804;2022-12-18T12:42:44;0.90;99.90
17621;DHT22;8929;51.008;6.804;2022-12-18T12:45:35;0.90;99.90
17621;DHT22;8929;51.008;6.804;2022-12-18T12:48:02;0.80;99.90
17621;DHT22;8929;51.008;6.804;2022-12-18T12:50:29;0.90;99.90
17621;DHT22;8929;51.008;6.804;2022-12-18T12:52:58;0.90;99.90
17621;DHT22;8929;51.008;6.804;2022-12-18T12:55:26;0.90;99.90
17621;DHT22;8929;51.008;6.804;2022-12-18T12:58:28;0.80;99.90
17621;DHT22;8929;51.008;6.804;2022-12-18T13:00:51;0.90;99.90
17621;DHT22;8929;51.008;6.804;2022-12-18T13:06:16;0.80;99.90
17621;DHT22;8929;51.008;6.804;2022-12-18T13:08:52;0.90;99.90
17621;DHT22;8929;51.008;6.804;2022-12-18T13:14:36;1.00;99.90
17621;DHT22;8929;51.008;6.804;2022-12-18T13:20:02;1.00;99.90
17621;DHT22;8929;51.008;6.804;2022-12-18T13:22:30;0.90;99.90
17621;DHT22;8929;51.008;6.804;2022-12-18T13:24:56;0.90;99.90
17621;DHT22;8929;51.008;6.804;2022-12-18T13:35:39;1.00;99.90
17621;DHT22;8929;51.008;6.804;2022-12-18T13:48:27;0.60;99.90
17621;DHT22;8929;51.008;6.804;2022-12-18T13:53:25;0.60;99.90
17621;DHT22;8929;51.008;6.804;2022-12-18T13:55:51;0.70;99.90
17621;DHT22;8929;51.008;6.804;2022-12-18T13:58:17;0.70;99.90
17621;DHT22;8929;51.008;6.804;2022-12-18T14:00:43;0.70;99.90
17621;DHT22;8929;51.008;6.804;2022-12-18T14:03:19;0.70;99.90
17621;DHT22;8929;51.008;6.804;2022-12-18T14:05:54;0.70;99.90
17621;DHT22;8929;51.008;6.804;2022-12-18T14:08:20;0.60;99.90
17621;DHT22;8929;51.008;6.804;2022-12-18T14:10:46;0.50;99.90
17621;DHT22;8929;51.008;6.804;2022-12-18T14:13:15;0.50;99.90
17621;DHT22;8929;51.008;6.804;2022-12-18T14:15:42;0.50;99.90
17621;DHT22;8929;51.008;6.804;2022-12-18T14:20:54;0.50;99.90
17621;DHT22;8929;51.008;6.804;2022-12-18T14:25:55;0.50;99.90
17621;DHT22;8929;51.008;6.804;2022-12-18T14:28:21;0.50;99.90
17621;DHT22;8929;51.008;6.804;2022-12-18T14:30:51;0.40;99.90
17621;DHT22;8929;51.008;6.804;2022-12-18T14:33:17;0.40;99.90
17621;DHT22;8929;51.008;6.804;2022-12-18T14:35:59;0.40;99.90
17621;DHT22;8929;51.008;6.804;2022-12-18T14:38:27;0.40;99.90
17621;DHT22;8929;51.008;6.804;2022-12-18T14:40:56;0.40;99.90
17621;DHT22;8929;51.008;6.804;2022-12-18T14:43:23;0.30;99.90
17621;DHT22;8929;51.008;6.804;2022-12-18T14:45:52;0.30;99.90
17621;DHT22;8929;51.008;6.804;2022-12-18T14:51:02;0.20;99.90
17621;DHT22;8929;51.008;6.804;2022-12-18T14:53:32;0.20;99.90
17621;DHT22;8929;51.008;6.804;2022-12-18T14:55:58;0.20;99.90
17621;DHT22;8929;51.008;6.804;2022-12-18T14:58:23;0.10;99.90
17621;DHT22;8929;51.008;6.804;2022-12-18T15:00:49;0.10;99.90
17621;DHT22;8929;51.008;6.804;2022-12-18T15:03:18;0.20;99.90
17621;DHT22;8929;51.008;6.804;2022-12-18T15:05:45;0.20;99.90
17621;DHT22;8929;51.008;6.804;2022-12-18T15:08:24;0.20;99.90
17621;DHT22;8929;51.008;6.804;2022-12-18T15:10:52;0.10;99.90
17621;DHT22;8929;51.008;6.804;2022-12-18T15:13:21;0.10;99.90
17621;DHT22;8929;51.008;6.804;2022-12-18T15:15:48;0.10;99.90
17621;DHT22;8929;51.008;6.804;2022-12-18T15:18:14;0.00;99.90
17621;DHT22;8929;51.008;6.804;2022-12-18T15:20:48;0.00;99.90
17621;DHT22;8929;51.008;6.804;2022-12-18T15:23:21;0.00;99.90
17621;DHT22;8929;51.008;6.804;2022-12-18T15:25:48;0.00;99.90
17621;DHT22;8929;51.008;6.804;2022-12-18T15:28:18;-0.10;99.90
17621;DHT22;8929;51.008;6.804;2022-12-18T15:31:04;-0.10;99.90
17621;DHT22;8929;51.008;6.804;2022-12-18T15:33:31;-0.10;99.90
17621;DHT22;8929;51.008;6.804;2022-12-18T15:35:58;-0.10;99.90
17621;DHT22;8929;51.008;6.804;2022-12-18T15:38:23;0.00;99.90
17621;DHT22;8929;51.008;6.804;2022-12-18T15:40:49;-0.10;99.90
17621;DHT22;8929;51.008;6.804;2022-12-18T15:43:14;-0.10;99.90
17621;DHT22;8929;51.008;6.804;2022-12-18T15:45:58;-0.10;99.90
17621;DHT22;8929;51.008;6.804;2022-12-18T15:48:24;-0.20;99.90
17621;DHT22;8929;51.008;6.804;2022-12-18T15:50:50;-0.10;99.90
17621;DHT22;8929;51.008;6.804;2022-12-18T15:53:17;-0.20;99.90
17621;DHT22;8929;51.008;6.804;2022-12-18T15:55:42;-0.20;99.90
17621;DHT22;8929;51.008;6.804;2022-12-18T15:58:27;-0.20;99.90
17621;DHT22;8929;51.008;6.804;2022-12-18T16:00:52;-0.20;99.90
17621;DHT22;8929;51.008;6.804;2022-12-18T16:03:19;-0.30;99.90
17621;DHT22;8929;51.008;6.804;2022-12-18T16:05:44;-0.30;99.90
17621;DHT22;8929;51.008;6.804;2022-12-18T16:08:10;-0.30;99.90
17621;DHT22;8929;51.008;6.804;2022-12-18T16:10:35;-0.30;99.90
17621;DHT22;8929;51.008;6.804;2022-12-18T16:13:01;-0.30;99.90
17621;DHT22;8929;51.008;6.804;2022-12-18T16:15:26;-0.30;99.90
17621;DHT22;8929;51.008;6.804;2022-12-18T16:17:51;-0.30;99.90
17621;DHT22;8929;51.008;6.804;2022-12-18T16:20:18;-0.30;99.90
17621;DHT22;8929;51.008;6.804;2022-12-18T16:22:44;-0.30;99.90
17621;DHT22;8929;51.008;6.804;2022-12-18T16:25:29;-0.40;99.90
17621;DHT22;8929;51.008;6.804;2022-12-18T16:27:55;-0.40;99.90
17621;DHT22;8929;51.008;6.804;2022-12-18T16:30:22;-0.30;99.90
17621;DHT22;8929;51.008;6.804;2022-12-18T16:32:48;-0.30;99.90
17621;DHT22;8929;51.008;6.804;2022-12-18T16:35:14;-0.30;99.90
17621;DHT22;8929;51.008;6.804;2022-12-18T16:37:40;-0.30;99.90
17621;DHT22;8929;51.008;6.804;2022-12-18T16:40:06;-0.40;99.90
17621;DHT22;8929;51.008;6.804;2022-12-18T16:42:34;-0.40;99.90
17621;DHT22;8929;51.008;6.804;2022-12-18T16:45:00;-0.40;99.90
17621;DHT22;8929;51.008;6.804;2022-12-18T16:47:25;-0.30;99.90
17621;DHT22;8929;51.008;6.804;2022-12-18T16:49:50;-0.30;99.90
17621;DHT22;8929;51.008;6.804;2022-12-18T16:52:17;-0.40;99.90
17621;DHT22;8929;51.008;6.804;2022-12-18T16:54:43;-0.30;99.90
17621;DHT22;8929;51.008;6.804;2022-12-18T16:57:12;-0.30;99.90
17621;DHT22;8929;51.008;6.804;2022-12-18T16:59:38;-0.30;99.90
17621;DHT22;8929;51.008;6.804;2022-12-18T17:02:03;-0.30;99.90
17621;DHT22;8929;51.008;6.804;2022-12-18T17:04:29;-0.30;99.90
17621;DHT22;8929;51.008;6.804;2022-12-18T17:06:54;-0.30;99.90
17621;DHT22;8929;51.008;6.804;2022-12-18T17:09:20;-0.30;99.90
17621;DHT22;8929;51.008;6.804;2022-12-18T17:11:52;-0.30;99.90
17621;DHT22;8929;51.008;6.804;2022-12-18T17:14:19;-0.40;99.90
17621;DHT22;8929;51.008;6.804;2022-12-18T17:16:45;-0.40;99.90
17621;DHT22;8929;51.008;6.804;2022-12-18T17:19:11;-0.40;99.90
17621;DHT22;8929;51.008;6.804;2022-12-18T17:21:36;-0.40;99.90
17621;DHT22;8929;51.008;6.804;2022-12-18T17:24:02;-0.40;99.90
17621;DHT22;8929;51.008;6.804;2022-12-18T17:26:28;-0.40;99.90
17621;DHT22;8929;51.008;6.804;2022-12-18T17:28:57;-0.40;99.90
17621;DHT22;8929;51.008;6.804;2022-12-18T17:31:23;-0.40;99.90
17621;DHT22;8929;51.008;6.804;2022-12-18T17:33:49;-0.40;99.90
17621;DHT22;8929;51.008;6.804;2022-12-18T17:36:14;-0.40;99.90
17621;DHT22;8929;51.008;6.804;2022-12-18T17:38:40;-0.40;99.90
17621;DHT22;8929;51.008;6.804;2022-12-18T17:41:06;-0.50;99.90
17621;DHT22;8929;51.008;6.804;2022-12-18T17:43:32;-0.50;99.90
17621;DHT22;8929;51.008;6.804;2022-12-18T17:46:01;-0.50;99.90